createdAt,value
2022-08-17T00:00:49.447Z,936.97
2022-08-17T00:01:51.847Z,936.94
2022-08-17T00:02:45.401Z,936.93
2022-08-17T00:03:45.373Z,936.94
2022-08-17T00:04:50.353Z,936.91
2022-08-17T00:05:45.346Z,936.90
2022-08-17T00:06:45.334Z,936.87
2022-08-17T00:07:45.325Z,936.85
2022-08-17T00:08:45.342Z,936.85
2022-08-17T00:09:45.347Z,936.87
2022-08-17T00:10:45.330Z,936.89
2022-08-17T00:12:03.955Z,936.87
2022-08-17T00:12:47.012Z,936.86
2022-08-17T00:13:45.298Z,936.81
2022-08-17T00:14:45.280Z,936.80
2022-08-17T00:15:45.274Z,936.78
2022-08-17T00:16:55.430Z,936.75
2022-08-17T00:17:45.250Z,936.78
2022-08-17T00:19:01.850Z,936.80
2022-08-17T00:19:45.280Z,936.77
2022-08-17T00:20:45.236Z,936.77
2022-08-17T00:22:29.520Z,936.76
2022-08-17T00:22:45.224Z,936.76
2022-08-17T00:23:49.293Z,936.75
2022-08-17T00:24:45.227Z,936.75
2022-08-17T00:25:45.186Z,936.77
2022-08-17T00:26:45.562Z,936.77
2022-08-17T00:27:45.205Z,936.77
2022-08-17T00:28:45.174Z,936.75
2022-08-17T00:29:45.181Z,936.75
2022-08-17T00:30:51.094Z,936.75
2022-08-17T00:31:45.121Z,936.77
2022-08-17T00:33:16.083Z,936.77
2022-08-17T00:33:45.107Z,936.78
2022-08-17T00:34:45.132Z,936.78
2022-08-17T00:35:45.110Z,936.75
2022-08-17T00:36:45.104Z,936.73
2022-08-17T00:37:45.083Z,936.69
2022-08-17T00:38:45.082Z,936.67
2022-08-17T00:39:45.150Z,936.66
2022-08-17T00:40:45.163Z,936.63
2022-08-17T00:41:45.036Z,936.60
2022-08-17T00:42:45.056Z,936.59
2022-08-17T00:43:45.040Z,936.59
2022-08-17T00:44:45.040Z,936.55
2022-08-17T00:45:44.998Z,936.55
2022-08-17T00:46:44.990Z,936.55
2022-08-17T00:47:44.984Z,936.57
2022-08-17T00:48:44.998Z,936.57
2022-08-17T00:49:44.997Z,936.58
2022-08-17T00:50:45.434Z,936.58
2022-08-17T00:51:44.956Z,936.57
2022-08-17T00:52:44.945Z,936.60
2022-08-17T00:53:44.933Z,936.59
2022-08-17T00:54:44.947Z,936.59
2022-08-17T00:55:44.912Z,936.58
2022-08-17T00:56:44.911Z,936.56
2022-08-17T00:57:44.918Z,936.56
2022-08-17T00:58:44.884Z,936.58
2022-08-17T00:59:44.903Z,936.60
2022-08-17T01:00:44.925Z,936.59
2022-08-17T01:01:44.866Z,936.60
2022-08-17T01:02:44.912Z,936.60
2022-08-17T01:03:44.850Z,936.57
2022-08-17T01:04:44.879Z,936.59
2022-08-17T01:05:44.856Z,936.60
2022-08-17T01:06:44.837Z,936.60
2022-08-17T01:07:44.830Z,936.60
2022-08-17T01:08:44.822Z,936.58
2022-08-17T01:09:44.811Z,936.55
2022-08-17T01:10:59.866Z,936.51
2022-08-17T01:11:44.784Z,936.47
2022-08-17T01:12:44.764Z,936.47
2022-08-17T01:13:44.767Z,936.44
2022-08-17T01:14:44.767Z,936.44
2022-08-17T01:15:46.106Z,936.42
2022-08-17T01:16:44.728Z,936.41
2022-08-17T01:17:44.723Z,936.40
2022-08-17T01:18:44.731Z,936.39
2022-08-17T01:19:44.708Z,936.36
2022-08-17T01:20:48.540Z,936.35
2022-08-17T01:21:44.686Z,936.35
2022-08-17T01:22:44.678Z,936.33
2022-08-17T01:23:44.673Z,936.34
2022-08-17T01:24:44.659Z,936.32
2022-08-17T01:25:44.673Z,936.33
2022-08-17T01:26:44.644Z,936.32
2022-08-17T01:27:44.635Z,936.30
2022-08-17T01:28:53.820Z,936.29
2022-08-17T01:29:44.624Z,936.29
2022-08-17T01:30:58.678Z,936.29
2022-08-17T01:31:44.609Z,936.28
2022-08-17T01:32:44.589Z,936.31
2022-08-17T01:33:44.586Z,936.29
2022-08-17T01:34:50.453Z,936.27
2022-08-17T01:35:49.462Z,936.24
2022-08-17T01:36:45.060Z,936.23
2022-08-17T01:37:44.595Z,936.20
2022-08-17T01:38:44.847Z,936.19
2022-08-17T01:39:47.303Z,936.17
2022-08-17T01:40:45.660Z,936.15
2022-08-17T01:41:46.372Z,936.15
2022-08-17T01:42:45.616Z,936.16
2022-08-17T01:43:44.522Z,936.14
2022-08-17T01:44:44.520Z,936.12
2022-08-17T01:45:44.545Z,936.13
2022-08-17T01:46:45.064Z,936.12
2022-08-17T01:47:44.509Z,936.07
2022-08-17T01:48:44.527Z,936.08
2022-08-17T01:49:44.474Z,936.07
2022-08-17T01:50:44.469Z,936.05
2022-08-17T01:51:44.484Z,936.05
2022-08-17T01:52:47.213Z,936.07
2022-08-17T01:53:46.151Z,936.09
2022-08-17T01:54:44.674Z,936.04
2022-08-17T01:55:45.104Z,936.03
2022-08-17T01:56:47.224Z,936.04
2022-08-17T01:57:44.415Z,936.06
2022-08-17T01:58:45.752Z,936.03
2022-08-17T01:59:44.395Z,936.01
2022-08-17T02:00:59.539Z,936.05
2022-08-17T02:01:44.484Z,936.05
2022-08-17T02:02:44.352Z,936.08
2022-08-17T02:03:59.102Z,936.10
2022-08-17T02:04:45.605Z,936.12
2022-08-17T02:05:44.319Z,936.12
2022-08-17T02:06:52.533Z,936.14
2022-08-17T02:08:00.579Z,936.16
2022-08-17T02:09:01.727Z,936.14
2022-08-17T02:09:46.030Z,936.19
2022-08-17T02:10:46.740Z,936.23
2022-08-17T02:11:46.248Z,936.25
2022-08-17T02:12:44.274Z,936.24
2022-08-17T02:13:44.263Z,936.24
2022-08-17T02:14:44.230Z,936.21
2022-08-17T02:15:44.227Z,936.18
2022-08-17T02:16:44.226Z,936.17
2022-08-17T02:17:44.208Z,936.17
2022-08-17T02:18:44.269Z,936.17
2022-08-17T02:19:44.240Z,936.21
2022-08-17T02:20:44.221Z,936.21
2022-08-17T02:21:44.241Z,936.20
2022-08-17T02:22:44.189Z,936.20
2022-08-17T02:23:44.193Z,936.21
2022-08-17T02:24:58.202Z,936.14
2022-08-17T02:25:44.175Z,936.15
2022-08-17T02:26:44.206Z,936.16
2022-08-17T02:27:44.149Z,936.13
2022-08-17T02:28:44.144Z,936.06
2022-08-17T02:29:44.151Z,936.07
2022-08-17T02:31:02.094Z,936.10
2022-08-17T02:31:46.862Z,936.07
2022-08-17T02:32:46.170Z,936.04
2022-08-17T02:33:44.124Z,936.02
2022-08-17T02:34:45.805Z,936.01
2022-08-17T02:35:44.076Z,936.02
2022-08-17T02:36:44.070Z,936.03
2022-08-17T02:37:44.110Z,936.04
2022-08-17T02:38:44.063Z,936.01
2022-08-17T02:39:44.076Z,936.01
2022-08-17T02:40:44.010Z,935.99
2022-08-17T02:41:44.024Z,936.01
2022-08-17T02:42:44.050Z,935.99
2022-08-17T02:43:44.619Z,935.99
2022-08-17T02:44:47.324Z,936.01
2022-08-17T02:45:44.618Z,936.01
2022-08-17T02:46:45.037Z,935.98
2022-08-17T02:47:44.731Z,935.94
2022-08-17T02:48:47.893Z,935.94
2022-08-17T02:49:54.299Z,935.95
2022-08-17T02:50:44.206Z,935.98
2022-08-17T02:51:52.091Z,935.97
2022-08-17T02:52:57.301Z,935.98
2022-08-17T02:57:22.168Z,936.00
2022-08-17T02:58:34.567Z,935.97
2022-08-17T02:59:23.081Z,935.97
2022-08-17T03:00:24.641Z,935.96
2022-08-17T03:01:21.345Z,935.95
2022-08-17T03:02:24.403Z,935.93
2022-08-17T03:03:21.153Z,935.92
2022-08-17T03:04:22.871Z,935.90
2022-08-17T03:05:23.164Z,935.91
2022-08-17T03:06:22.662Z,935.90
2022-08-17T03:07:21.103Z,935.92
2022-08-17T03:08:21.193Z,935.94
2022-08-17T03:09:24.921Z,935.96
2022-08-17T03:10:25.382Z,935.95
2022-08-17T03:11:21.470Z,935.94
2022-08-17T03:12:27.148Z,935.94
2022-08-17T03:13:22.147Z,935.93
2022-08-17T03:14:26.222Z,935.93
2022-08-17T03:15:27.061Z,935.92
2022-08-17T03:16:21.007Z,935.91
2022-08-17T03:17:23.753Z,935.93
2022-08-17T03:18:24.874Z,935.93
2022-08-17T03:20:07.532Z,935.95
2022-08-17T03:20:21.026Z,935.96
2022-08-17T03:21:20.984Z,935.96
2022-08-17T03:22:36.504Z,935.97
2022-08-17T03:23:23.699Z,936.01
2022-08-17T03:24:28.627Z,936.06
2022-08-17T03:25:22.651Z,936.09
2022-08-17T03:26:22.156Z,936.10
2022-08-17T03:27:22.732Z,936.11
2022-08-17T03:28:24.444Z,936.15
2022-08-17T03:29:22.674Z,936.19
2022-08-17T03:30:23.957Z,936.21
2022-08-17T03:31:20.929Z,936.20
2022-08-17T03:32:23.347Z,936.18
2022-08-17T03:33:21.281Z,936.20
2022-08-17T03:34:28.336Z,936.19
2022-08-17T03:35:20.908Z,936.15
2022-08-17T03:36:22.703Z,936.09
2022-08-17T03:37:23.844Z,936.06
2022-08-17T03:39:08.606Z,936.06
2022-08-17T03:39:24.673Z,936.07
2022-08-17T03:40:34.430Z,936.09
2022-08-17T03:41:21.853Z,936.09
2022-08-17T03:42:53.522Z,936.09
2022-08-17T03:43:20.766Z,936.09
2022-08-17T03:44:20.729Z,936.06
2022-08-17T03:45:23.656Z,936.06
2022-08-17T03:46:27.915Z,936.06
2022-08-17T03:47:27.124Z,936.09
2022-08-17T03:48:20.711Z,936.12
2022-08-17T03:49:33.301Z,936.17
2022-08-17T03:50:21.655Z,936.16
2022-08-17T03:51:20.649Z,936.17
2022-08-17T03:52:22.646Z,936.14
2022-08-17T03:53:21.162Z,936.12
2022-08-17T03:54:20.627Z,936.11
2022-08-17T03:55:21.064Z,936.13
2022-08-17T03:56:20.621Z,936.11
2022-08-17T03:57:20.679Z,936.09
2022-08-17T03:58:20.569Z,936.07
2022-08-17T03:59:23.202Z,936.10
2022-08-17T04:00:23.779Z,936.08
2022-08-17T04:01:21.749Z,936.05
2022-08-17T04:02:22.163Z,936.05
2022-08-17T04:03:21.306Z,936.04
2022-08-17T04:04:21.666Z,936.04
2022-08-17T04:05:21.234Z,936.04
2022-08-17T04:06:20.754Z,936.03
2022-08-17T04:07:20.532Z,936.07
2022-08-17T04:08:21.212Z,936.14
2022-08-17T04:09:20.472Z,936.11
2022-08-17T04:10:24.690Z,936.13
2022-08-17T04:11:20.482Z,936.15
2022-08-17T04:12:20.759Z,936.15
2022-08-17T04:13:24.972Z,936.19
2022-08-17T04:14:20.424Z,936.21
2022-08-17T04:15:24.050Z,936.27
2022-08-17T04:16:22.991Z,936.27
2022-08-17T04:17:20.420Z,936.24
2022-08-17T04:18:24.402Z,936.25
2022-08-17T04:19:20.416Z,936.26
2022-08-17T04:20:20.399Z,936.30
2022-08-17T04:21:19.369Z,936.29
2022-08-17T04:22:30.291Z,936.28
2022-08-17T04:23:20.373Z,936.23
2022-08-17T04:24:20.329Z,936.22
2022-08-17T04:25:21.169Z,936.22
2022-08-17T04:26:52.893Z,936.21
2022-08-17T04:27:21.164Z,936.20
2022-08-17T04:28:20.321Z,936.20
2022-08-17T04:29:20.317Z,936.23
2022-08-17T04:30:20.313Z,936.28
2022-08-17T04:31:21.784Z,936.26
2022-08-17T04:32:58.478Z,936.26
2022-08-17T04:33:20.302Z,936.26
2022-08-17T04:34:24.759Z,936.26
2022-08-17T04:35:23.391Z,936.28
2022-08-17T04:36:21.172Z,936.33
2022-08-17T04:37:20.236Z,936.33
2022-08-17T04:38:23.165Z,936.29
2022-08-17T04:39:22.540Z,936.26
2022-08-17T04:40:20.537Z,936.29
2022-08-17T04:41:20.193Z,936.31
2022-08-17T04:42:20.175Z,936.30
2022-08-17T04:43:20.211Z,936.31
2022-08-17T04:44:27.284Z,936.33
2022-08-17T04:45:20.176Z,936.34
2022-08-17T04:46:20.191Z,936.36
2022-08-17T04:47:23.375Z,936.36
2022-08-17T04:48:22.106Z,936.34
2022-08-17T04:49:20.158Z,936.36
2022-08-17T04:50:20.117Z,936.37
2022-08-17T04:51:20.136Z,936.36
2022-08-17T04:52:29.745Z,936.35
2022-08-17T04:53:20.091Z,936.36
2022-08-17T04:54:20.083Z,936.38
2022-08-17T04:55:20.317Z,936.39
2022-08-17T04:56:20.069Z,936.43
2022-08-17T04:57:20.038Z,936.43
2022-08-17T04:58:20.042Z,936.42
2022-08-17T04:59:21.631Z,936.41
2022-08-17T05:00:20.023Z,936.41
2022-08-17T05:01:23.892Z,936.39
2022-08-17T05:02:19.996Z,936.38
2022-08-17T05:03:22.678Z,936.36
2022-08-17T05:04:33.398Z,936.37
2022-08-17T05:05:19.970Z,936.38
2022-08-17T05:06:19.977Z,936.37
2022-08-17T05:07:24.654Z,936.35
2022-08-17T05:08:19.955Z,936.37
2022-08-17T05:09:19.942Z,936.40
2022-08-17T05:10:19.929Z,936.36
2022-08-17T05:11:22.633Z,936.35
2022-08-17T05:12:19.922Z,936.36
2022-08-17T05:13:19.903Z,936.35
2022-08-17T05:14:19.914Z,936.34
2022-08-17T05:15:19.912Z,936.34
2022-08-17T05:16:19.873Z,936.34
2022-08-17T05:17:19.862Z,936.33
2022-08-17T05:18:19.866Z,936.33
2022-08-17T05:19:19.871Z,936.32
2022-08-17T05:20:19.850Z,936.30
2022-08-17T05:21:19.845Z,936.32
2022-08-17T05:22:19.859Z,936.35
2022-08-17T05:23:19.809Z,936.38
2022-08-17T05:24:42.693Z,936.42
2022-08-17T05:25:19.796Z,936.43
2022-08-17T05:26:25.760Z,936.43
2022-08-17T05:27:19.791Z,936.40
2022-08-17T05:28:19.781Z,936.40
2022-08-17T05:29:22.411Z,936.42
2022-08-17T05:30:19.760Z,936.44
2022-08-17T05:31:19.746Z,936.45
2022-08-17T05:32:38.581Z,936.43
2022-08-17T05:33:20.238Z,936.46
2022-08-17T05:34:19.718Z,936.47
2022-08-17T05:35:19.714Z,936.46
2022-08-17T05:36:42.111Z,936.43
2022-08-17T05:37:19.683Z,936.46
2022-08-17T05:38:19.677Z,936.45
2022-08-17T05:39:19.673Z,936.45
2022-08-17T05:40:22.332Z,936.44
2022-08-17T05:41:19.634Z,936.43
2022-08-17T05:42:19.648Z,936.43
2022-08-17T05:43:21.400Z,936.42
2022-08-17T05:44:22.257Z,936.42
2022-08-17T05:45:54.545Z,936.40
2022-08-17T05:46:19.620Z,936.37
2022-08-17T05:47:22.159Z,936.36
2022-08-17T05:48:19.609Z,936.35
2022-08-17T05:49:19.581Z,936.37
2022-08-17T05:50:21.168Z,936.38
2022-08-17T05:51:20.791Z,936.39
2022-08-17T05:52:28.456Z,936.40
2022-08-17T05:53:28.406Z,936.39
2022-08-17T05:54:25.093Z,936.35
2022-08-17T05:55:20.229Z,936.35
2022-08-17T05:56:29.702Z,936.38
2022-08-17T05:57:20.954Z,936.42
2022-08-17T05:58:19.560Z,936.45
2022-08-17T05:59:20.359Z,936.46
2022-08-17T06:00:49.248Z,936.50
2022-08-17T06:01:23.734Z,936.53
2022-08-17T06:02:20.206Z,936.53
2022-08-17T06:03:29.339Z,936.53
2022-08-17T06:04:19.442Z,936.53
2022-08-17T06:05:19.439Z,936.55
2022-08-17T06:06:19.440Z,936.59
2022-08-17T06:07:19.426Z,936.62
2022-08-17T06:08:19.406Z,936.65
2022-08-17T06:09:26.556Z,936.66
2022-08-17T06:13:56.490Z,936.62
2022-08-17T06:15:06.072Z,936.63
2022-08-17T06:15:56.569Z,936.64
2022-08-17T06:16:56.544Z,936.69
2022-08-17T06:17:59.160Z,936.70
2022-08-17T06:18:56.516Z,936.71
2022-08-17T06:19:57.585Z,936.74
2022-08-17T06:20:57.891Z,936.74
2022-08-17T06:21:56.489Z,936.79
2022-08-17T06:22:56.456Z,936.80
2022-08-17T06:23:58.132Z,936.82
2022-08-17T06:24:56.442Z,936.79
2022-08-17T06:25:56.428Z,936.78
2022-08-17T06:27:01.887Z,936.78
2022-08-17T06:27:56.435Z,936.79
2022-08-17T06:28:57.456Z,936.83
2022-08-17T06:29:56.399Z,936.85
2022-08-17T06:32:04.611Z,936.86
2022-08-17T06:32:09.472Z,936.89
2022-08-17T06:33:09.428Z,936.89
2022-08-17T06:34:11.177Z,936.86
2022-08-17T06:35:09.390Z,936.88
2022-08-17T06:36:09.826Z,936.92
2022-08-17T06:37:10.534Z,936.93
2022-08-17T06:38:36.985Z,936.94
2022-08-17T06:39:12.096Z,936.95
2022-08-17T06:40:09.490Z,936.96
2022-08-17T06:41:09.327Z,936.97
2022-08-17T06:42:55.126Z,936.98
2022-08-17T06:43:13.002Z,936.99
2022-08-17T06:44:12.429Z,936.98
2022-08-17T06:47:03.317Z,936.99
2022-08-17T06:48:04.320Z,936.95
2022-08-17T06:49:07.176Z,936.93
2022-08-17T06:50:04.291Z,936.91
2022-08-17T06:51:06.957Z,936.90
2022-08-17T06:52:04.307Z,936.90
2022-08-17T06:53:06.349Z,936.89
2022-08-17T06:54:08.059Z,936.90
2022-08-17T06:55:05.826Z,936.92
2022-08-17T06:56:08.826Z,936.95
2022-08-17T06:57:04.952Z,936.93
2022-08-17T06:58:05.840Z,936.93
2022-08-17T06:59:13.698Z,936.96
2022-08-17T07:00:05.915Z,936.96
2022-08-17T07:01:07.747Z,936.95
2022-08-17T07:02:04.196Z,936.96
2022-08-17T07:03:04.618Z,936.98
2022-08-17T07:04:19.446Z,936.98
2022-08-17T07:05:04.135Z,936.99
2022-08-17T07:06:45.876Z,936.99
2022-08-17T07:09:55.749Z,936.97
2022-08-17T07:10:55.762Z,936.98
2022-08-17T07:11:55.754Z,937.01
2022-08-17T07:12:55.746Z,937.05
2022-08-17T07:13:55.744Z,937.03
2022-08-17T07:14:55.729Z,937.01
2022-08-17T07:15:57.175Z,937.07
2022-08-17T07:16:55.708Z,937.10
2022-08-17T07:17:55.695Z,937.13
2022-08-17T07:18:55.705Z,937.15
2022-08-17T07:19:55.678Z,937.16
2022-08-17T07:20:55.676Z,937.14
2022-08-17T07:21:55.660Z,937.16
2022-08-17T07:22:59.608Z,937.15
2022-08-17T07:23:55.652Z,937.13
2022-08-17T07:24:55.634Z,937.15
2022-08-17T07:25:55.637Z,937.16
2022-08-17T07:27:57.407Z,937.18
2022-08-17T07:28:08.607Z,937.20
2022-08-17T07:29:57.009Z,937.20
2022-08-17T07:30:05.628Z,937.18
2022-08-17T07:31:02.190Z,937.18
2022-08-17T07:32:02.158Z,937.18
2022-08-17T07:33:02.156Z,937.16
2022-08-17T07:34:02.159Z,937.13
2022-08-17T07:35:02.145Z,937.11
2022-08-17T07:36:02.116Z,937.09
2022-08-17T07:37:02.105Z,937.04
2022-08-17T07:38:02.085Z,937.03
2022-08-17T07:39:02.096Z,937.03
2022-08-17T07:40:15.863Z,937.00
2022-08-17T07:41:02.271Z,936.96
2022-08-17T07:42:02.058Z,936.96
2022-08-17T07:43:02.079Z,936.93
2022-08-17T07:44:02.079Z,936.92
2022-08-17T07:45:02.041Z,936.96
2022-08-17T07:46:02.027Z,937.00
2022-08-17T07:47:02.018Z,937.01
2022-08-17T07:48:01.991Z,937.02
2022-08-17T07:49:02.003Z,937.03
2022-08-17T07:50:02.030Z,937.04
2022-08-17T07:51:01.995Z,937.05
2022-08-17T07:52:13.561Z,937.06
2022-08-17T07:53:02.014Z,937.07
2022-08-17T07:54:13.985Z,937.09
2022-08-17T07:55:02.037Z,937.13
2022-08-17T07:56:09.996Z,937.16
2022-08-17T07:57:17.958Z,937.18
2022-08-17T07:58:04.794Z,937.16
2022-08-17T07:59:04.602Z,937.13
2022-08-17T08:00:04.792Z,937.07
2022-08-17T08:03:51.816Z,936.93
2022-08-17T08:05:00.258Z,936.95
2022-08-17T08:14:42.953Z,937.01
2022-08-17T08:19:04.079Z,937.20
2022-08-17T08:19:08.853Z,937.17
2022-08-17T08:20:47.802Z,937.13
2022-08-17T08:21:08.997Z,937.13
2022-08-17T08:22:08.822Z,937.10
2022-08-17T08:23:08.815Z,937.07
2022-08-17T08:24:08.805Z,937.06
2022-08-17T08:25:08.814Z,937.08
2022-08-17T08:26:08.785Z,937.08
2022-08-17T08:27:08.806Z,937.12
2022-08-17T08:28:08.815Z,937.15
2022-08-17T08:29:08.761Z,937.16
2022-08-17T08:30:08.770Z,937.16
2022-08-17T08:31:08.740Z,937.14
2022-08-17T08:32:08.739Z,937.15
2022-08-17T08:33:08.723Z,937.13
2022-08-17T08:34:08.710Z,937.10
2022-08-17T08:35:08.742Z,937.10
2022-08-17T08:36:08.694Z,937.08
2022-08-17T08:37:17.816Z,937.11
2022-08-17T08:38:08.833Z,937.10
2022-08-17T08:39:08.676Z,937.09
2022-08-17T08:40:08.786Z,937.05
2022-08-17T08:41:09.299Z,937.03
2022-08-17T08:42:09.337Z,937.05
2022-08-17T08:43:40.810Z,937.06
2022-08-17T08:45:00.414Z,937.03
2022-08-17T08:45:08.632Z,937.04
2022-08-17T08:46:08.644Z,937.04
2022-08-17T08:47:08.602Z,937.04
2022-08-17T08:48:23.110Z,937.03
2022-08-17T08:49:11.972Z,937.05
2022-08-17T08:50:08.572Z,937.07
2022-08-17T08:51:08.633Z,937.11
2022-08-17T08:52:08.565Z,937.12
2022-08-17T08:53:08.540Z,937.12
2022-08-17T08:54:08.538Z,937.14
2022-08-17T08:55:08.525Z,937.14
2022-08-17T08:56:08.516Z,937.14
2022-08-17T08:57:29.018Z,937.13
2022-08-17T08:58:08.509Z,937.09
2022-08-17T08:59:08.501Z,937.08
2022-08-17T09:00:08.497Z,937.05
2022-08-17T09:01:08.522Z,937.04
2022-08-17T09:02:08.497Z,937.01
2022-08-17T09:03:08.498Z,936.97
2022-08-17T09:04:23.307Z,936.95
2022-08-17T09:05:16.168Z,936.93
2022-08-17T09:06:33.397Z,936.95
2022-08-17T09:07:08.439Z,936.96
2022-08-17T09:08:08.459Z,936.98
2022-08-17T09:09:08.428Z,936.99
2022-08-17T09:10:08.439Z,936.97
2022-08-17T09:11:08.373Z,936.92
2022-08-17T09:12:08.376Z,936.96
2022-08-17T09:13:10.091Z,936.97
2022-08-17T09:14:21.223Z,936.97
2022-08-17T09:15:12.883Z,936.98
2022-08-17T09:16:08.338Z,936.99
2022-08-17T09:17:08.322Z,937.02
2022-08-17T09:19:01.894Z,937.03
2022-08-17T09:19:08.345Z,937.05
2022-08-17T09:20:08.310Z,937.06
2022-08-17T09:21:08.289Z,937.05
2022-08-17T09:22:08.288Z,937.06
2022-08-17T09:23:08.272Z,937.07
2022-08-17T09:24:08.281Z,937.07
2022-08-17T09:25:08.259Z,937.07
2022-08-17T09:26:08.251Z,937.04
2022-08-17T09:27:08.236Z,937.06
2022-08-17T09:28:08.238Z,937.08
2022-08-17T09:29:08.242Z,937.09
2022-08-17T09:30:08.217Z,937.09
2022-08-17T09:31:08.194Z,937.09
2022-08-17T09:32:08.195Z,937.09
2022-08-17T09:33:08.202Z,937.11
2022-08-17T09:34:08.176Z,937.13
2022-08-17T09:35:16.699Z,937.10
2022-08-17T09:36:08.155Z,937.11
2022-08-17T09:37:08.136Z,937.10
2022-08-17T09:38:08.137Z,937.08
2022-08-17T09:39:08.140Z,937.08
2022-08-17T09:40:08.176Z,937.10
2022-08-17T09:41:08.104Z,937.10
2022-08-17T09:42:08.100Z,937.11
2022-08-17T09:43:08.088Z,937.09
2022-08-17T09:44:22.564Z,937.10
2022-08-17T09:45:08.079Z,937.07
2022-08-17T09:46:08.060Z,937.06
2022-08-17T09:47:08.066Z,937.04
2022-08-17T09:48:08.088Z,937.06
2022-08-17T09:49:08.029Z,937.06
2022-08-17T09:50:08.033Z,937.07
2022-08-17T09:51:08.015Z,937.08
2022-08-17T09:52:08.010Z,937.06
2022-08-17T09:53:07.999Z,937.06
2022-08-17T09:54:37.118Z,937.06
2022-08-17T09:55:07.990Z,937.05
2022-08-17T09:56:07.969Z,937.03
2022-08-17T09:57:28.559Z,937.03
2022-08-17T09:58:07.969Z,937.03
2022-08-17T09:59:07.961Z,937.04
2022-08-17T10:00:07.939Z,937.06
2022-08-17T10:01:07.985Z,937.04
2022-08-17T10:02:07.917Z,937.04
2022-08-17T10:03:07.913Z,937.05
2022-08-17T10:04:07.920Z,937.08
2022-08-17T10:05:07.888Z,937.07
2022-08-17T10:06:07.890Z,937.06
2022-08-17T10:07:07.866Z,937.02
2022-08-17T10:08:07.873Z,937.01
2022-08-17T10:09:07.875Z,937.02
2022-08-17T10:10:12.149Z,937.03
2022-08-17T10:11:07.842Z,937.04
2022-08-17T10:12:07.828Z,937.05
2022-08-17T10:13:09.626Z,937.07
2022-08-17T10:14:36.555Z,937.09
2022-08-17T10:15:09.416Z,937.06
2022-08-17T10:16:07.801Z,937.04
2022-08-17T10:17:07.786Z,937.01
2022-08-17T10:18:07.774Z,936.98
2022-08-17T10:19:07.760Z,936.99
2022-08-17T10:20:07.776Z,936.97
2022-08-17T10:21:07.741Z,936.93
2022-08-17T10:22:14.603Z,936.96
2022-08-17T10:23:07.736Z,936.97
2022-08-17T10:24:07.719Z,936.98
2022-08-17T10:25:21.453Z,937.02
2022-08-17T10:26:07.715Z,936.96
2022-08-17T10:27:07.689Z,936.94
2022-08-17T10:28:09.049Z,936.93
2022-08-17T10:29:07.676Z,936.89
2022-08-17T10:30:07.671Z,936.88
2022-08-17T10:32:07.656Z,936.93
2022-08-17T10:33:07.632Z,936.94
2022-08-17T10:34:07.631Z,936.98
2022-08-17T10:35:07.631Z,936.98
2022-08-17T10:36:10.786Z,936.99
2022-08-17T10:37:07.602Z,937.01
2022-08-17T10:38:07.596Z,937.02
2022-08-17T10:39:07.580Z,937.02
2022-08-17T10:40:07.655Z,937.01
2022-08-17T10:41:07.569Z,936.99
2022-08-17T10:42:07.578Z,936.95
2022-08-17T10:43:07.543Z,936.93
2022-08-17T10:44:38.308Z,936.95
2022-08-17T10:45:07.537Z,936.96
2022-08-17T10:46:10.308Z,936.99
2022-08-17T10:47:07.544Z,936.99
2022-08-17T10:48:07.781Z,937.02
2022-08-17T10:49:07.509Z,937.01
2022-08-17T10:50:07.493Z,937.04
2022-08-17T10:51:07.482Z,937.04
2022-08-17T10:52:07.489Z,937.05
2022-08-17T10:53:07.488Z,937.04
2022-08-17T10:54:07.451Z,937.14
2022-08-17T10:55:07.448Z,937.13
2022-08-17T10:56:07.465Z,937.11
2022-08-17T10:57:07.423Z,937.09
2022-08-17T10:58:07.479Z,937.13
2022-08-17T10:59:07.404Z,937.12
2022-08-17T11:00:07.441Z,937.12
2022-08-17T11:01:07.481Z,937.13
2022-08-17T11:02:07.394Z,937.14
2022-08-17T11:03:07.380Z,937.14
2022-08-17T11:04:07.388Z,937.13
2022-08-17T11:05:07.356Z,937.11
2022-08-17T11:06:07.363Z,937.09
2022-08-17T11:07:07.337Z,937.08
2022-08-17T11:08:07.336Z,937.07
2022-08-17T11:09:07.343Z,937.05
2022-08-17T11:10:07.321Z,937.06
2022-08-17T11:11:07.305Z,937.07
2022-08-17T11:12:07.317Z,937.12
2022-08-17T11:13:07.288Z,937.05
2022-08-17T11:14:07.305Z,937.03
2022-08-17T11:15:07.264Z,937.02
2022-08-17T11:16:08.559Z,937.03
2022-08-17T11:17:07.248Z,937.02
2022-08-17T11:18:07.248Z,937.04
2022-08-17T11:19:07.232Z,937.04
2022-08-17T11:20:07.249Z,937.13
2022-08-17T11:21:07.232Z,937.11
2022-08-17T11:22:07.240Z,937.11
2022-08-17T11:23:07.202Z,937.11
2022-08-17T11:24:07.210Z,937.13
2022-08-17T11:25:07.185Z,937.13
2022-08-17T11:26:07.176Z,937.12
2022-08-17T11:27:07.166Z,937.15
2022-08-17T11:28:07.177Z,937.12
2022-08-17T11:29:07.177Z,937.11
2022-08-17T11:30:07.146Z,937.08
2022-08-17T11:31:07.505Z,937.07
2022-08-17T11:32:07.127Z,937.04
2022-08-17T11:33:07.296Z,937.05
2022-08-17T11:34:07.123Z,937.06
2022-08-17T11:35:07.119Z,937.07
2022-08-17T11:36:07.095Z,937.07
2022-08-17T11:37:07.078Z,937.08
2022-08-17T11:38:09.707Z,937.08
2022-08-17T11:39:07.076Z,937.10
2022-08-17T11:40:07.125Z,937.12
2022-08-17T11:41:07.043Z,937.10
2022-08-17T11:42:07.042Z,937.11
2022-08-17T11:43:07.024Z,937.07
2022-08-17T11:44:07.038Z,937.03
2022-08-17T11:45:07.005Z,937.02
2022-08-17T11:46:07.023Z,936.97
2022-08-17T11:47:06.991Z,936.95
2022-08-17T11:48:27.184Z,936.96
2022-08-17T11:49:06.993Z,936.97
2022-08-17T11:50:06.965Z,936.99
2022-08-17T11:51:06.955Z,936.94
2022-08-17T11:52:06.964Z,937.04
2022-08-17T11:53:06.935Z,937.02
2022-08-17T11:54:32.707Z,937.02
2022-08-17T11:55:31.798Z,937.04
2022-08-17T11:56:06.918Z,937.01
2022-08-17T11:57:06.899Z,936.98
2022-08-17T11:58:06.897Z,936.98
2022-08-17T11:59:06.880Z,936.96
2022-08-17T12:00:06.895Z,936.98
2022-08-17T12:01:06.886Z,936.97
2022-08-17T12:02:06.858Z,936.97
2022-08-17T12:03:06.884Z,936.96
2022-08-17T12:04:06.872Z,936.97
2022-08-17T12:05:12.081Z,936.96
2022-08-17T12:06:06.831Z,936.98
2022-08-17T12:07:06.812Z,936.99
2022-08-17T12:08:06.802Z,936.99
2022-08-17T12:09:06.795Z,937.01
2022-08-17T12:10:06.786Z,937.01
2022-08-17T12:11:06.792Z,937.03
2022-08-17T12:12:13.389Z,937.00
2022-08-17T12:13:06.775Z,936.99
2022-08-17T12:14:06.751Z,936.98
2022-08-17T12:15:10.529Z,936.99
2022-08-17T12:16:06.754Z,937.02
2022-08-17T12:17:06.724Z,937.01
2022-08-17T12:18:06.709Z,937.01
2022-08-17T12:19:06.710Z,937.03
2022-08-17T12:20:06.721Z,936.99
2022-08-17T12:21:06.682Z,936.99
2022-08-17T12:22:06.672Z,937.00
2022-08-17T12:23:06.681Z,936.94
2022-08-17T12:24:06.702Z,936.96
2022-08-17T12:25:06.661Z,936.92
2022-08-17T12:26:06.653Z,936.92
2022-08-17T12:27:06.647Z,936.90
2022-08-17T12:28:07.894Z,936.88
2022-08-17T12:29:06.614Z,936.89
2022-08-17T12:30:06.726Z,936.90
2022-08-17T12:31:06.611Z,936.89
2022-08-17T12:32:06.585Z,936.87
2022-08-17T12:33:06.576Z,936.87
2022-08-17T12:34:06.572Z,936.86
2022-08-17T12:35:06.563Z,936.89
2022-08-17T12:36:06.560Z,936.87
2022-08-17T12:37:06.540Z,936.89
2022-08-17T12:38:06.529Z,936.93
2022-08-17T12:39:14.387Z,936.91
2022-08-17T12:40:06.692Z,936.93
2022-08-17T12:41:06.522Z,936.93
2022-08-17T12:42:06.488Z,936.93
2022-08-17T12:43:06.491Z,936.90
2022-08-17T12:44:06.474Z,936.87
2022-08-17T12:45:06.509Z,936.86
2022-08-17T12:46:13.325Z,936.84
2022-08-17T12:47:06.460Z,936.82
2022-08-17T12:48:06.447Z,936.85
2022-08-17T12:49:06.429Z,936.88
2022-08-17T12:50:06.428Z,936.89
2022-08-17T12:51:06.434Z,936.89
2022-08-17T12:52:06.414Z,936.88
2022-08-17T12:53:06.396Z,936.86
2022-08-17T12:54:06.546Z,936.85
2022-08-17T12:55:06.410Z,936.84
2022-08-17T12:56:06.377Z,936.83